Terminal Aerodrome Forecast
Issued by NWS Newport/Morehead City, NC

Home | Current Version | Previous Version | Text Only | Print | Product List | Glossary On
Versions: 1 2 3 4 5 6 7 8 9 10 11 12 13 14 15 16 17 18
000
FTUS42 KMHX 292328
TAFEWN
TAF
KEWN 292328Z 3000/3024 20010KT P6SM SKC
     FM300600 20005KT P6SM FEW010
     FM301100 21005KT P6SM FEW005 SCT010
     FM301600 20010KT P6SM FEW020
     FM302100 19010KT P6SM FEW140=

USA.gov is the U.S. government's official web portal to all federal, state and local government web resources and services.